This is the latest recevied weather packets stored in our database for station/object DG0PX-12. If no packets are shown the sender has not sent any weather packets the latest 1 day(s).
| Time | Temp. | Humidity | Pressure | Rain* | Wind** | Luminosity | Snow |
|---|---|---|---|---|---|---|---|
| 1777770001 | 10.56° C | 60% | 948.9 hPa | - | - | - | - |
| 1777769101 | 11.11° C | 65% | 949 hPa | - | - | - | - |
| 1777768201 | 10° C | 67% | 949.2 hPa | - | - | - | - |
| 1777767301 | 11.11° C | 61% | 949.2 hPa | - | - | - | - |
| 1777766401 | 11.11° C | 66% | 949.5 hPa | - | - | - | - |
| 1777765500 | 10.56° C | 65% | 949.5 hPa | - | - | - | - |
| 1777764600 | 10.56° C | 66% | 949.5 hPa | - | - | - | - |
| 1777763700 | 10.56° C | 65% | 949.6 hPa | - | - | - | - |
| 1777762800 | 11.11° C | 64% | 949.5 hPa | - | - | - | - |
| 1777761900 | 11.11° C | 60% | 949.7 hPa | - | - | - | - |
| 1777761000 | 12.22° C | 58% | 949.8 hPa | - | - | - | - |
| 1777760099 | 12.22° C | 56% | 949.9 hPa | - | - | - | - |
| 1777759199 | 11.11° C | 62% | 949.8 hPa | - | - | - | - |
| 1777758299 | 12.78° C | 57% | 949.8 hPa | - | - | - | - |
| 1777756499 | 13.33° C | 54% | 949.9 hPa | - | - | - | - |
| 1777755599 | 13.89° C | 51% | 950 hPa | - | - | - | - |
| 1777754698 | 13.89° C | 50% | 950.1 hPa | - | - | - | - |
| 1777753798 | 13.33° C | 53% | 950.1 hPa | - | - | - | - |
| 1777752898 | 14.44° C | 50% | 950.2 hPa | - | - | - | - |
| 1777751998 | 13.89° C | 52% | 950.2 hPa | - | - | - | - |
| 1777751098 | 15° C | 46% | 950.1 hPa | - | - | - | - |
| 1777750198 | 15.56° C | 44% | 950 hPa | - | - | - | - |
| 1777749297 | 16.11° C | 46% | 950 hPa | - | - | - | - |
| 1777748397 | 16.67° C | 44% | 949.9 hPa | - | - | - | - |
| 1777747497 | 17.22° C | 43% | 950 hPa | - | - | - | - |
* Rain since midnight (hover to see other rain measurements)
** Current wind speed in m/s (hover to see current wind gust speed)